sensor_id;sensor_type;location;lat;lon;timestamp;pressure;altitude;pressure_sealevel;temperature;humidity
9281;BME280;4679;47.966;7.958;2023-10-31T06:45:13;96063.41;;;10.76;76.09
9281;BME280;4679;47.966;7.958;2023-10-31T06:47:15;96073.47;;;10.79;76.70
9281;BME280;4679;47.966;7.958;2023-10-31T06:49:16;96068.19;;;10.79;76.11
9281;BME280;4679;47.966;7.958;2023-10-31T06:51:19;96073.47;;;10.79;76.25
9281;BME280;4679;47.966;7.958;2023-10-31T06:53:21;96084.09;;;10.79;76.92
9281;BME280;4679;47.966;7.958;2023-10-31T06:55:22;96082.25;;;10.79;76.46
9281;BME280;4679;47.966;7.958;2023-10-31T06:57:24;96085.69;;;10.80;76.63
9281;BME280;4679;47.966;7.958;2023-10-31T06:59:24;96094.97;;;10.82;76.53
9281;BME280;4679;47.966;7.958;2023-10-31T07:01:27;96089.66;;;10.82;75.70
9281;BME280;4679;47.966;7.958;2023-10-31T07:03:29;96090.97;;;10.85;76.18
9281;BME280;4679;47.966;7.958;2023-10-31T07:05:30;96092.84;;;10.84;76.47
9281;BME280;4679;47.966;7.958;2023-10-31T07:07:32;96096.00;;;10.86;76.54
9281;BME280;4679;47.966;7.958;2023-10-31T07:09:33;96102.09;;;10.87;75.91
9281;BME280;4679;47.966;7.958;2023-10-31T07:11:35;96101.03;;;10.88;76.75
9281;BME280;4679;47.966;7.958;2023-10-31T07:13:36;96098.13;;;10.89;76.48
9281;BME280;4679;47.966;7.958;2023-10-31T07:15:38;96098.66;;;10.91;76.49
9281;BME280;4679;47.966;7.958;2023-10-31T07:17:41;96103.69;;;10.93;75.85
9281;BME280;4679;47.966;7.958;2023-10-31T07:19:41;96098.63;;;10.97;75.87
9281;BME280;4679;47.966;7.958;2023-10-31T07:21:43;96099.44;;;10.97;76.69
9281;BME280;4679;47.966;7.958;2023-10-31T07:23:44;96102.63;;;10.99;76.14
9281;BME280;4679;47.966;7.958;2023-10-31T07:25:46;96104.19;;;11.00;76.22
9281;BME280;4679;47.966;7.958;2023-10-31T07:27:47;96111.88;;;11.02;75.96
9281;BME280;4679;47.966;7.958;2023-10-31T07:29:48;96122.22;;;11.03;75.73
9281;BME280;4679;47.966;7.958;2023-10-31T07:31:50;96114.25;;;11.03;76.35
9281;BME280;4679;47.966;7.958;2023-10-31T07:33:52;96112.41;;;11.04;76.44
9281;BME280;4679;47.966;7.958;2023-10-31T07:35:54;96114.00;;;11.05;76.94
9281;BME280;4679;47.966;7.958;2023-10-31T07:37:55;96119.56;;;11.03;76.04
9281;BME280;4679;47.966;7.958;2023-10-31T07:39:57;96125.41;;;11.00;76.42
9281;BME280;4679;47.966;7.958;2023-10-31T07:41:58;96118.25;;;11.01;76.33
9281;BME280;4679;47.966;7.958;2023-10-31T07:44:00;96132.31;;;11.01;75.78
9281;BME280;4679;47.966;7.958;2023-10-31T07:46:02;96129.66;;;11.01;76.65
9281;BME280;4679;47.966;7.958;2023-10-31T07:48:04;96128.59;;;11.02;76.46
9281;BME280;4679;47.966;7.958;2023-10-31T07:50:08;96135.50;;;11.03;76.13
9281;BME280;4679;47.966;7.958;2023-10-31T07:52:09;96130.19;;;11.03;75.71
9281;BME280;4679;47.966;7.958;2023-10-31T07:54:11;96131.78;;;11.04;76.71
9281;BME280;4679;47.966;7.958;2023-10-31T07:56:18;96136.03;;;11.05;75.85
9281;BME280;4679;47.966;7.958;2023-10-31T07:58:23;96132.84;;;11.08;76.37
9281;BME280;4679;47.966;7.958;2023-10-31T08:00:24;96135.50;;;11.08;76.67
9281;BME280;4679;47.966;7.958;2023-10-31T08:02:26;96153.53;;;11.11;76.67
9281;BME280;4679;47.966;7.958;2023-10-31T08:04:28;96131.75;;;11.14;76.06
9281;BME280;4679;47.966;7.958;2023-10-31T08:06:31;96147.13;;;11.17;77.06
9281;BME280;4679;47.966;7.958;2023-10-31T08:08:33;96142.88;;;11.21;76.69
9281;BME280;4679;47.966;7.958;2023-10-31T08:10:35;96146.06;;;11.23;75.82
9281;BME280;4679;47.966;7.958;2023-10-31T08:12:37;96148.44;;;11.25;75.54
9281;BME280;4679;47.966;7.958;2023-10-31T08:14:38;96149.78;;;11.27;75.71
9281;BME280;4679;47.966;7.958;2023-10-31T08:16:41;96165.69;;;11.27;76.86
9281;BME280;4679;47.966;7.958;2023-10-31T08:18:42;96151.63;;;11.27;76.17
9281;BME280;4679;47.966;7.958;2023-10-31T08:20:44;96155.88;;;11.28;75.90
9281;BME280;4679;47.966;7.958;2023-10-31T08:22:50;96158.25;;;11.30;76.81
9281;BME280;4679;47.966;7.958;2023-10-31T08:24:52;96151.84;;;11.31;75.90
9281;BME280;4679;47.966;7.958;2023-10-31T08:26:53;96159.06;;;11.30;76.79
9281;BME280;4679;47.966;7.958;2023-10-31T08:28:55;96150.00;;;11.31;76.44
9281;BME280;4679;47.966;7.958;2023-10-31T08:30:56;96151.59;;;11.32;76.34
9281;BME280;4679;47.966;7.958;2023-10-31T08:32:58;96157.44;;;11.34;75.90
9281;BME280;4679;47.966;7.958;2023-10-31T08:34:59;96153.72;;;11.35;76.87
9281;BME280;4679;47.966;7.958;2023-10-31T08:37:01;96163.28;;;11.36;75.79
9281;BME280;4679;47.966;7.958;2023-10-31T08:39:04;96161.69;;;11.35;76.88
9281;BME280;4679;47.966;7.958;2023-10-31T08:41:06;96169.09;;;11.38;75.87
9281;BME280;4679;47.966;7.958;2023-10-31T08:43:07;96175.47;;;11.37;76.09
9281;BME280;4679;47.966;7.958;2023-10-31T08:45:09;96178.94;;;11.38;76.35
9281;BME280;4679;47.966;7.958;2023-10-31T08:47:11;96173.63;;;11.38;76.38
9281;BME280;4679;47.966;7.958;2023-10-31T08:49:14;96163.78;;;11.38;76.38
9281;BME280;4679;47.966;7.958;2023-10-31T08:51:16;96164.59;;;11.39;75.85
9281;BME280;4679;47.966;7.958;2023-10-31T08:53:17;96166.19;;;11.40;76.08
9281;BME280;4679;47.966;7.958;2023-10-31T08:55:21;96170.69;;;11.44;75.71
9281;BME280;4679;47.966;7.958;2023-10-31T08:57:23;96173.31;;;11.49;75.92
9281;BME280;4679;47.966;7.958;2023-10-31T08:59:23;96178.88;;;11.53;76.14
9281;BME280;4679;47.966;7.958;2023-10-31T09:01:26;96175.69;;;11.56;75.80
9281;BME280;4679;47.966;7.958;2023-10-31T09:03:27;96184.19;;;11.58;76.26
9281;BME280;4679;47.966;7.958;2023-10-31T09:05:29;96183.34;;;11.62;76.20
9281;BME280;4679;47.966;7.958;2023-10-31T09:07:30;96182.53;;;11.67;75.83
9281;BME280;4679;47.966;7.958;2023-10-31T09:09:31;96188.38;;;11.69;75.72
9281;BME280;4679;47.966;7.958;2023-10-31T09:11:34;96189.44;;;11.68;75.35
9281;BME280;4679;47.966;7.958;2023-10-31T09:13:36;96191.81;;;11.70;76.22
9281;BME280;4679;47.966;7.958;2023-10-31T09:15:37;96190.50;;;11.72;76.00
9281;BME280;4679;47.966;7.958;2023-10-31T09:17:39;96189.94;;;11.75;75.84
9281;BME280;4679;47.966;7.958;2023-10-31T09:19:41;96191.28;;;11.78;75.34
9281;BME280;4679;47.966;7.958;2023-10-31T09:21:42;96188.06;;;11.86;75.58
9281;BME280;4679;47.966;7.958;2023-10-31T09:23:44;96201.31;;;11.91;75.07
9281;BME280;4679;47.966;7.958;2023-10-31T09:25:45;96195.16;;;11.95;75.35
9281;BME280;4679;47.966;7.958;2023-10-31T09:27:47;96181.59;;;12.02;75.04
9281;BME280;4679;47.966;7.958;2023-10-31T09:29:49;96184.25;;;12.02;75.07
9281;BME280;4679;47.966;7.958;2023-10-31T09:31:51;96180.50;;;12.03;74.40
9281;BME280;4679;47.966;7.958;2023-10-31T09:33:53;96180.50;;;12.03;74.80
9281;BME280;4679;47.966;7.958;2023-10-31T09:35:54;96183.69;;;12.05;74.94
9281;BME280;4679;47.966;7.958;2023-10-31T09:37:55;96193.75;;;12.08;74.15
9281;BME280;4679;47.966;7.958;2023-10-31T09:39:58;96181.50;;;12.12;74.32
9281;BME280;4679;47.966;7.958;2023-10-31T09:41:58;96184.38;;;12.21;74.13
9281;BME280;4679;47.966;7.958;2023-10-31T09:44:01;96192.59;;;12.24;74.03
9281;BME280;4679;47.966;7.958;2023-10-31T09:46:03;96196.56;;;12.27;74.07
9281;BME280;4679;47.966;7.958;2023-10-31T09:48:05;96190.69;;;12.30;73.91
9281;BME280;4679;47.966;7.958;2023-10-31T09:50:07;96187.50;;;12.33;73.66
9281;BME280;4679;47.966;7.958;2023-10-31T09:52:09;96190.94;;;12.33;73.78
9281;BME280;4679;47.966;7.958;2023-10-31T09:54:12;96197.06;;;12.34;73.51
9281;BME280;4679;47.966;7.958;2023-10-31T09:56:15;96186.38;;;12.39;73.89
9281;BME280;4679;47.966;7.958;2023-10-31T09:58:17;96187.44;;;12.38;73.54
9281;BME280;4679;47.966;7.958;2023-10-31T10:00:20;96187.97;;;12.40;73.31
9281;BME280;4679;47.966;7.958;2023-10-31T10:02:22;96182.31;;;12.52;73.18
9281;BME280;4679;47.966;7.958;2023-10-31T10:04:23;96185.66;;;12.62;73.09
9281;BME280;4679;47.966;7.958;2023-10-31T10:06:25;96194.63;;;12.72;72.72
9281;BME280;4679;47.966;7.958;2023-10-31T10:08:27;96193.47;;;12.83;72.50
9281;BME280;4679;47.966;7.958;2023-10-31T10:10:29;96200.66;;;12.82;72.64
9281;BME280;4679;47.966;7.958;2023-10-31T10:12:32;96198.03;;;13.06;71.89
9281;BME280;4679;47.966;7.958;2023-10-31T10:14:33;96202.44;;;12.92;72.31
9281;BME280;4679;47.966;7.958;2023-10-31T10:16:36;96196.06;;;12.88;72.42
9281;BME280;4679;47.966;7.958;2023-10-31T10:18:38;96201.16;;;12.84;72.12
9281;BME280;4679;47.966;7.958;2023-10-31T10:20:54;96196.41;;;12.81;72.40
9281;BME280;4679;47.966;7.958;2023-10-31T10:23:03;96200.94;;;12.81;71.87
9281;BME280;4679;47.966;7.958;2023-10-31T10:25:06;96193.97;;;12.85;72.08
9281;BME280;4679;47.966;7.958;2023-10-31T10:27:08;96204.84;;;12.88;71.93
9281;BME280;4679;47.966;7.958;2023-10-31T10:29:10;96201.16;;;12.84;71.99
9281;BME280;4679;47.966;7.958;2023-10-31T10:31:13;96197.66;;;12.89;72.13
9281;BME280;4679;47.966;7.958;2023-10-31T10:33:17;96208.00;;;12.95;71.85
9281;BME280;4679;47.966;7.958;2023-10-31T10:35:18;96205.28;;;13.00;71.54
9281;BME280;4679;47.966;7.958;2023-10-31T10:37:20;96203.69;;;12.99;71.52
9281;BME280;4679;47.966;7.958;2023-10-31T10:39:22;96207.00;;;12.86;72.02
9281;BME280;4679;47.966;7.958;2023-10-31T10:41:25;96205.94;;;12.87;71.98
9281;BME280;4679;47.966;7.958;2023-10-31T10:43:28;96211.78;;;12.89;71.61
9281;BME280;4679;47.966;7.958;2023-10-31T10:45:33;96203.50;;;12.91;71.74
9281;BME280;4679;47.966;7.958;2023-10-31T10:47:34;96206.16;;;12.91;71.62
9281;BME280;4679;47.966;7.958;2023-10-31T10:49:41;96203.78;;;12.89;71.70
9281;BME280;4679;47.966;7.958;2023-10-31T10:51:47;96199.56;;;12.83;71.77
9281;BME280;4679;47.966;7.958;2023-10-31T10:53:57;96203.81;;;12.84;71.95
9281;BME280;4679;47.966;7.958;2023-10-31T10:56:01;96195.03;;;12.84;71.39
9281;BME280;4679;47.966;7.958;2023-10-31T10:58:05;96201.69;;;12.86;71.84
9281;BME280;4679;47.966;7.958;2023-10-31T11:00:11;96198.81;;;12.83;71.34
9281;BME280;4679;47.966;7.958;2023-10-31T11:02:13;96196.69;;;12.80;71.51
9281;BME280;4679;47.966;7.958;2023-10-31T11:04:16;96199.34;;;12.80;71.69
9281;BME280;4679;47.966;7.958;2023-10-31T11:06:19;96197.53;;;12.75;71.79
9281;BME280;4679;47.966;7.958;2023-10-31T11:08:23;96197.81;;;12.74;71.65
9281;BME280;4679;47.966;7.958;2023-10-31T11:10:26;96203.94;;;12.69;71.70
9281;BME280;4679;47.966;7.958;2023-10-31T11:12:29;96189.38;;;12.66;71.87
9281;BME280;4679;47.966;7.958;2023-10-31T11:14:31;96191.72;;;12.68;71.70
9281;BME280;4679;47.966;7.958;2023-10-31T11:16:38;96189.81;;;12.74;71.85
9281;BME280;4679;47.966;7.958;2023-10-31T11:18:42;96205.00;;;12.73;71.71
9281;BME280;4679;47.966;7.958;2023-10-31T11:20:46;96198.31;;;12.76;71.80
9281;BME280;4679;47.966;7.958;2023-10-31T11:22:54;96207.09;;;12.76;71.34
9281;BME280;4679;47.966;7.958;2023-10-31T11:24:57;96211.88;;;12.79;71.89
9281;BME280;4679;47.966;7.958;2023-10-31T11:27:02;96197.81;;;12.74;72.09
9281;BME280;4679;47.966;7.958;2023-10-31T11:29:04;96197.00;;;12.73;71.88
9281;BME280;4679;47.966;7.958;2023-10-31T11:31:08;96202.88;;;12.70;72.13
9281;BME280;4679;47.966;7.958;2023-10-31T11:33:13;96207.41;;;12.69;72.01
9281;BME280;4679;47.966;7.958;2023-10-31T11:35:16;96205.81;;;12.68;72.09
9281;BME280;4679;47.966;7.958;2023-10-31T11:37:23;96206.91;;;12.67;72.14
9281;BME280;4679;47.966;7.958;2023-10-31T11:39:27;96212.78;;;12.64;72.38
9281;BME280;4679;47.966;7.958;2023-10-31T11:41:32;96205.38;;;12.61;71.83
9281;BME280;4679;47.966;7.958;2023-10-31T11:43:51;96207.78;;;12.58;72.92
9281;BME280;4679;47.966;7.958;2023-10-31T11:45:53;96215.78;;;12.53;72.50
9281;BME280;4679;47.966;7.958;2023-10-31T11:47:57;96218.44;;;12.53;72.96
9281;BME280;4679;47.966;7.958;2023-10-31T11:49:59;96219.56;;;12.52;72.92
9281;BME280;4679;47.966;7.958;2023-10-31T11:52:01;96221.44;;;12.46;72.56
9281;BME280;4679;47.966;7.958;2023-10-31T11:54:03;96220.91;;;12.44;72.78
9281;BME280;4679;47.966;7.958;2023-10-31T11:56:09;96225.19;;;12.40;73.10
9281;BME280;4679;47.966;7.958;2023-10-31T11:58:14;96231.31;;;12.41;72.89
9281;BME280;4679;47.966;7.958;2023-10-31T12:00:20;96232.09;;;12.46;73.02
9281;BME280;4679;47.966;7.958;2023-10-31T12:02:22;96234.19;;;12.49;72.54
9281;BME280;4679;47.966;7.958;2023-10-31T12:04:23;96230.75;;;12.49;72.89
9281;BME280;4679;47.966;7.958;2023-10-31T12:06:25;96233.16;;;12.45;73.01
9281;BME280;4679;47.966;7.958;2023-10-31T12:08:27;96235.31;;;12.38;73.13
9281;BME280;4679;47.966;7.958;2023-10-31T12:10:29;96234.84;;;12.31;73.80
9281;BME280;4679;47.966;7.958;2023-10-31T12:12:32;96246.03;;;12.28;74.00
9281;BME280;4679;47.966;7.958;2023-10-31T12:14:34;96236.22;;;12.23;73.71
9281;BME280;4679;47.966;7.958;2023-10-31T12:16:35;96231.75;;;12.19;74.60
9281;BME280;4679;47.966;7.958;2023-10-31T12:18:37;96237.34;;;12.17;74.34
9281;BME280;4679;47.966;7.958;2023-10-31T12:20:47;96237.28;;;12.22;74.30
9281;BME280;4679;47.966;7.958;2023-10-31T12:23:01;96242.31;;;12.29;74.07
9281;BME280;4679;47.966;7.958;2023-10-31T12:25:03;96233.75;;;12.37;73.80
9281;BME280;4679;47.966;7.958;2023-10-31T12:27:05;96249.66;;;12.42;73.89
9281;BME280;4679;47.966;7.958;2023-10-31T12:29:13;96244.34;;;12.42;74.22
9281;BME280;4679;47.966;7.958;2023-10-31T12:31:15;96251.81;;;12.40;74.22
9281;BME280;4679;47.966;7.958;2023-10-31T12:33:17;96251.53;;;12.42;74.77
9281;BME280;4679;47.966;7.958;2023-10-31T12:35:21;96256.06;;;12.41;74.75
9281;BME280;4679;47.966;7.958;2023-10-31T12:37:22;96250.25;;;12.34;74.46
9281;BME280;4679;47.966;7.958;2023-10-31T12:39:25;96252.94;;;12.34;74.42
9281;BME280;4679;47.966;7.958;2023-10-31T12:41:27;96251.09;;;12.29;74.76
9281;BME280;4679;47.966;7.958;2023-10-31T12:43:28;96268.91;;;12.29;74.91
9281;BME280;4679;47.966;7.958;2023-10-31T12:45:31;96265.72;;;12.27;75.16
9281;BME280;4679;47.966;7.958;2023-10-31T12:47:32;96259.59;;;12.26;75.18
9281;BME280;4679;47.966;7.958;2023-10-31T12:49:34;96261.00;;;12.19;74.96
9281;BME280;4679;47.966;7.958;2023-10-31T12:51:35;96266.84;;;12.16;75.50
9281;BME280;4679;47.966;7.958;2023-10-31T12:53:37;96257.28;;;12.15;75.58
9281;BME280;4679;47.966;7.958;2023-10-31T12:55:39;96272.19;;;12.11;74.88
9281;BME280;4679;47.966;7.958;2023-10-31T12:57:40;96284.47;;;12.07;75.77
9281;BME280;4679;47.966;7.958;2023-10-31T12:59:41;96281.03;;;11.96;76.03
9281;BME280;4679;47.966;7.958;2023-10-31T13:01:44;96288.28;;;11.80;76.33
9281;BME280;4679;47.966;7.958;2023-10-31T13:03:49;96293.34;;;11.61;76.58
9281;BME280;4679;47.966;7.958;2023-10-31T13:05:51;96296.31;;;11.50;76.75
9281;BME280;4679;47.966;7.958;2023-10-31T13:07:54;96282.75;;;11.46;76.35
9281;BME280;4679;47.966;7.958;2023-10-31T13:09:56;96280.41;;;11.45;77.19
9281;BME280;4679;47.966;7.958;2023-10-31T13:11:59;96281.47;;;11.44;77.04
9281;BME280;4679;47.966;7.958;2023-10-31T13:14:01;96286.25;;;11.42;76.70
9281;BME280;4679;47.966;7.958;2023-10-31T13:16:04;96285.97;;;11.38;76.64
9281;BME280;4679;47.966;7.958;2023-10-31T13:18:06;96295.81;;;11.38;76.93
9281;BME280;4679;47.966;7.958;2023-10-31T13:20:12;96295.00;;;11.37;77.72
9281;BME280;4679;47.966;7.958;2023-10-31T13:22:14;96286.78;;;11.34;77.49
9281;BME280;4679;47.966;7.958;2023-10-31T13:24:15;96292.09;;;11.28;78.21
9281;BME280;4679;47.966;7.958;2023-10-31T13:26:16;96295.56;;;11.29;77.72
9281;BME280;4679;47.966;7.958;2023-10-31T13:28:18;96301.13;;;11.33;77.79
9281;BME280;4679;47.966;7.958;2023-10-31T13:30:20;96306.44;;;11.27;77.07
9281;BME280;4679;47.966;7.958;2023-10-31T13:32:24;96300.88;;;11.24;77.90
9281;BME280;4679;47.966;7.958;2023-10-31T13:34:26;96304.59;;;11.23;78.01
9281;BME280;4679;47.966;7.958;2023-10-31T13:36:27;96304.84;;;11.21;78.78
9281;BME280;4679;47.966;7.958;2023-10-31T13:38:29;96300.88;;;11.24;78.55
9281;BME280;4679;47.966;7.958;2023-10-31T13:40:31;96301.66;;;11.24;77.99
9281;BME280;4679;47.966;7.958;2023-10-31T13:42:32;96303.53;;;11.24;78.01
9281;BME280;4679;47.966;7.958;2023-10-31T13:44:34;96308.56;;;11.25;78.38
9281;BME280;4679;47.966;7.958;2023-10-31T13:46:35;96300.34;;;11.22;78.41
9281;BME280;4679;47.966;7.958;2023-10-31T13:48:37;96317.59;;;11.19;78.65
9281;BME280;4679;47.966;7.958;2023-10-31T13:50:39;96312.03;;;11.21;78.46
9281;BME280;4679;47.966;7.958;2023-10-31T13:52:41;96311.75;;;11.17;79.10
9281;BME280;4679;47.966;7.958;2023-10-31T13:54:43;96316.53;;;11.15;79.23
9281;BME280;4679;47.966;7.958;2023-10-31T13:56:45;96311.75;;;11.17;79.28
9281;BME280;4679;47.966;7.958;2023-10-31T13:58:47;96314.16;;;11.19;79.01
9281;BME280;4679;47.966;7.958;2023-10-31T14:00:48;96315.47;;;11.21;78.86
9281;BME280;4679;47.966;7.958;2023-10-31T14:02:50;96320.25;;;11.24;79.01
9281;BME280;4679;47.966;7.958;2023-10-31T14:04:51;96318.91;;;11.32;78.20
9281;BME280;4679;47.966;7.958;2023-10-31T14:06:54;96325.53;;;11.35;78.87
9281;BME280;4679;47.966;7.958;2023-10-31T14:08:56;96322.38;;;11.38;78.74
9281;BME280;4679;47.966;7.958;2023-10-31T14:10:57;96328.22;;;11.40;78.80
9281;BME280;4679;47.966;7.958;2023-10-31T14:12:59;96325.03;;;11.43;78.43
9281;BME280;4679;47.966;7.958;2023-10-31T14:15:00;96315.72;;;11.45;79.01
9281;BME280;4679;47.966;7.958;2023-10-31T14:17:02;96318.09;;;11.47;78.91
9281;BME280;4679;47.966;7.958;2023-10-31T14:19:06;96321.03;;;11.45;78.96
9281;BME280;4679;47.966;7.958;2023-10-31T14:21:08;96338.03;;;11.44;79.00
9281;BME280;4679;47.966;7.958;2023-10-31T14:23:10;96335.88;;;11.46;78.82
9281;BME280;4679;47.966;7.958;2023-10-31T14:25:11;96341.19;;;11.51;78.68
9281;BME280;4679;47.966;7.958;2023-10-31T14:27:13;96338.53;;;11.51;78.46
9281;BME280;4679;47.966;7.958;2023-10-31T14:29:15;96336.94;;;11.55;78.91
9281;BME280;4679;47.966;7.958;2023-10-31T14:31:17;96343.59;;;11.58;78.75
9281;BME280;4679;47.966;7.958;2023-10-31T14:33:19;96351.00;;;11.61;78.54
9281;BME280;4679;47.966;7.958;2023-10-31T14:35:20;96349.41;;;11.65;78.78
9281;BME280;4679;47.966;7.958;2023-10-31T14:37:22;96360.03;;;11.65;78.60
9281;BME280;4679;47.966;7.958;2023-10-31T14:39:26;96350.47;;;11.64;79.05
9281;BME280;4679;47.966;7.958;2023-10-31T14:41:28;96355.25;;;11.62;78.65
9281;BME280;4679;47.966;7.958;2023-10-31T14:43:33;96363.22;;;11.67;78.33
9281;BME280;4679;47.966;7.958;2023-10-31T14:45:35;96362.44;;;11.67;79.25
9281;BME280;4679;47.966;7.958;2023-10-31T14:47:37;96369.88;;;11.70;78.77
9281;BME280;4679;47.966;7.958;2023-10-31T14:49:39;96369.59;;;11.71;78.97
9281;BME280;4679;47.966;7.958;2023-10-31T14:51:40;96374.91;;;11.71;79.44
9281;BME280;4679;47.966;7.958;2023-10-31T14:53:42;96378.63;;;11.70;78.46
9281;BME280;4679;47.966;7.958;2023-10-31T14:55:44;96376.25;;;11.69;78.56
9281;BME280;4679;47.966;7.958;2023-10-31T14:57:45;96385.03;;;11.69;79.08
9281;BME280;4679;47.966;7.958;2023-10-31T14:59:47;96400.16;;;11.69;78.72
9281;BME280;4679;47.966;7.958;2023-10-31T15:01:48;96399.38;;;11.68;78.99
9281;BME280;4679;47.966;7.958;2023-10-31T15:03:49;96401.50;;;11.66;78.96
9281;BME280;4679;47.966;7.958;2023-10-31T15:05:52;96409.47;;;11.66;79.53
9281;BME280;4679;47.966;7.958;2023-10-31T15:07:54;96387.94;;;11.68;79.52
9281;BME280;4679;47.966;7.958;2023-10-31T15:09:55;96403.63;;;11.69;78.63
9281;BME280;4679;47.966;7.958;2023-10-31T15:11:58;96407.88;;;11.70;79.28
9281;BME280;4679;47.966;7.958;2023-10-31T15:14:00;96414.78;;;11.66;79.35
9281;BME280;4679;47.966;7.958;2023-10-31T15:16:02;96409.72;;;11.64;79.77
9281;BME280;4679;47.966;7.958;2023-10-31T15:18:04;96412.13;;;11.66;78.60
9281;BME280;4679;47.966;7.958;2023-10-31T15:20:07;96410.00;;;11.68;79.67
9281;BME280;4679;47.966;7.958;2023-10-31T15:22:10;96415.31;;;11.68;79.11
9281;BME280;4679;47.966;7.958;2023-10-31T15:24:11;96415.56;;;11.67;79.42
9281;BME280;4679;47.966;7.958;2023-10-31T15:26:13;96419.28;;;11.66;79.55
9281;BME280;4679;47.966;7.958;2023-10-31T15:28:16;96415.31;;;11.68;79.22
9281;BME280;4679;47.966;7.958;2023-10-31T15:30:18;96428.59;;;11.68;79.43
9281;BME280;4679;47.966;7.958;2023-10-31T15:32:20;96430.72;;;11.66;79.55
9281;BME280;4679;47.966;7.958;2023-10-31T15:34:21;96427.00;;;11.67;79.04
9281;BME280;4679;47.966;7.958;2023-10-31T15:36:23;96437.63;;;11.67;79.40
9281;BME280;4679;47.966;7.958;2023-10-31T15:38:25;96446.66;;;11.66;79.74
9281;BME280;4679;47.966;7.958;2023-10-31T15:40:27;96443.47;;;11.64;79.52
9281;BME280;4679;47.966;7.958;2023-10-31T15:42:29;96449.84;;;11.63;79.27
9281;BME280;4679;47.966;7.958;2023-10-31T15:44:31;96452.50;;;11.63;79.49
9281;BME280;4679;47.966;7.958;2023-10-31T15:46:32;96456.22;;;11.62;78.92
9281;BME280;4679;47.966;7.958;2023-10-31T15:48:36;96462.59;;;11.61;79.45
9281;BME280;4679;47.966;7.958;2023-10-31T15:50:38;96458.38;;;11.60;79.24
9281;BME280;4679;47.966;7.958;2023-10-31T15:52:39;96459.94;;;11.61;78.85
9281;BME280;4679;47.966;7.958;2023-10-31T15:54:41;96477.25;;;11.58;79.56
9281;BME280;4679;47.966;7.958;2023-10-31T15:56:42;96469.00;;;11.60;78.61
9281;BME280;4679;47.966;7.958;2023-10-31T15:58:44;96469.00;;;11.60;79.17
9281;BME280;4679;47.966;7.958;2023-10-31T16:00:47;96473.00;;;11.57;79.09
9281;BME280;4679;47.966;7.958;2023-10-31T16:02:48;96471.38;;;11.56;79.47
9281;BME280;4679;47.966;7.958;2023-10-31T16:04:49;96484.69;;;11.56;78.91
9281;BME280;4679;47.966;7.958;2023-10-31T16:06:51;96490.78;;;11.57;79.16
9281;BME280;4679;47.966;7.958;2023-10-31T16:08:52;96487.06;;;11.58;79.59
9281;BME280;4679;47.966;7.958;2023-10-31T16:10:55;96492.13;;;11.59;79.35
9281;BME280;4679;47.966;7.958;2023-10-31T16:12:56;96498.25;;;11.60;79.42
9281;BME280;4679;47.966;7.958;2023-10-31T16:14:58;96495.84;;;11.58;78.84
9281;BME280;4679;47.966;7.958;2023-10-31T16:17:01;96497.69;;;11.58;79.17
9281;BME280;4679;47.966;7.958;2023-10-31T16:19:02;96501.16;;;11.58;78.48
9281;BME280;4679;47.966;7.958;2023-10-31T16:21:04;96501.16;;;11.58;78.29
9281;BME280;4679;47.966;7.958;2023-10-31T16:23:07;96517.09;;;11.58;78.69
9281;BME280;4679;47.966;7.958;2023-10-31T16:25:08;96515.75;;;11.61;78.61
9281;BME280;4679;47.966;7.958;2023-10-31T16:27:10;96521.84;;;11.61;78.53
9281;BME280;4679;47.966;7.958;2023-10-31T16:29:12;96521.06;;;11.61;78.97
9281;BME280;4679;47.966;7.958;2023-10-31T16:31:16;96522.66;;;11.62;78.59
9281;BME280;4679;47.966;7.958;2023-10-31T16:33:20;96537.53;;;11.63;79.22
9281;BME280;4679;47.966;7.958;2023-10-31T16:35:22;96533.31;;;11.67;78.28
9281;BME280;4679;47.966;7.958;2023-10-31T16:37:23;96532.50;;;11.67;78.69
9281;BME280;4679;47.966;7.958;2023-10-31T16:39:25;96532.75;;;11.65;78.51
9281;BME280;4679;47.966;7.958;2023-10-31T16:41:25;96537.28;;;11.64;78.05
9281;BME280;4679;47.966;7.958;2023-10-31T16:43:29;96541.78;;;11.64;79.04
9281;BME280;4679;47.966;7.958;2023-10-31T16:45:31;96539.13;;;11.64;78.59
9281;BME280;4679;47.966;7.958;2023-10-31T16:47:34;96544.47;;;11.64;77.97
9281;BME280;4679;47.966;7.958;2023-10-31T16:49:36;96540.75;;;11.65;78.01
9281;BME280;4679;47.966;7.958;2023-10-31T16:51:39;96556.69;;;11.65;78.71
9281;BME280;4679;47.966;7.958;2023-10-31T16:53:40;96556.41;;;11.67;78.79
9281;BME280;4679;47.966;7.958;2023-10-31T16:55:42;96565.44;;;11.66;78.69
9281;BME280;4679;47.966;7.958;2023-10-31T16:57:43;96564.41;;;11.67;78.85
9281;BME280;4679;47.966;7.958;2023-10-31T16:59:45;96557.75;;;11.69;78.38
9281;BME280;4679;47.966;7.958;2023-10-31T17:01:47;96572.09;;;11.68;78.08
9281;BME280;4679;47.966;7.958;2023-10-31T17:03:49;96567.59;;;11.74;78.49
9281;BME280;4679;47.966;7.958;2023-10-31T17:05:52;96575.06;;;11.77;77.74
9281;BME280;4679;47.966;7.958;2023-10-31T17:07:53;96570.28;;;11.79;78.54
9281;BME280;4679;47.966;7.958;2023-10-31T17:09:55;96583.56;;;11.79;78.20
9281;BME280;4679;47.966;7.958;2023-10-31T17:11:57;96590.22;;;11.81;78.30
9281;BME280;4679;47.966;7.958;2023-10-31T17:13:58;96595.81;;;11.80;77.39
9281;BME280;4679;47.966;7.958;2023-10-31T17:16:00;96600.06;;;11.81;77.80
9281;BME280;4679;47.966;7.958;2023-10-31T17:18:00;96600.06;;;11.86;77.75
9281;BME280;4679;47.966;7.958;2023-10-31T17:20:06;96616.03;;;11.86;78.25
9281;BME280;4679;47.966;7.958;2023-10-31T17:22:09;96610.44;;;11.87;77.40
9281;BME280;4679;47.966;7.958;2023-10-31T17:24:11;96615.75;;;11.87;78.17
9281;BME280;4679;47.966;7.958;2023-10-31T17:26:13;96620.53;;;11.85;77.29
9281;BME280;4679;47.966;7.958;2023-10-31T17:28:14;96627.47;;;11.86;77.74
9281;BME280;4679;47.966;7.958;2023-10-31T17:30:16;96618.44;;;11.87;77.41
9281;BME280;4679;47.966;7.958;2023-10-31T17:32:18;96617.38;;;11.88;77.57
9281;BME280;4679;47.966;7.958;2023-10-31T17:34:19;96634.38;;;11.87;77.93
9281;BME280;4679;47.966;7.958;2023-10-31T17:36:21;96640.50;;;11.88;77.69
9281;BME280;4679;47.966;7.958;2023-10-31T17:38:24;96627.47;;;11.91;77.96
9281;BME280;4679;47.966;7.958;2023-10-31T17:40:25;96638.63;;;11.93;77.26
9281;BME280;4679;47.966;7.958;2023-10-31T17:42:26;96639.97;;;11.91;77.78
9281;BME280;4679;47.966;7.958;2023-10-31T17:44:28;96639.16;;;11.95;77.33
9281;BME280;4679;47.966;7.958;2023-10-31T17:46:29;96639.41;;;11.94;76.71
9281;BME280;4679;47.966;7.958;2023-10-31T17:48:32;96644.47;;;11.95;76.94
9281;BME280;4679;47.966;7.958;2023-10-31T17:50:34;96651.13;;;11.98;77.65